Time;durP1;ratioP1;P1;durP2;ratioP2;P2;SDS_P1;SDS_P2;PMS_P1;PMS_P2;Temp;Humidity;BMP_temperature;BMP_pressure;BME280_temperature;BME280_humidity;BME280_pressure;Samples;Min_cycle;Max_cycle;Signal;HPM_P1;HPM_P2
2023/05/02 00:01:23;;;;;;;30.58;16.60;;;10.50;99.90;;;;;;4972328;28;20380;-84
2023/05/02 00:03:49;;;;;;;23.45;14.45;;;10.60;99.90;;;;;;4989927;28;20430;-83
2023/05/02 00:06:15;;;;;;;23.25;13.18;;;10.60;99.90;;;;;;4972505;28;20034;-85
2023/05/02 00:08:41;;;;;;;26.63;14.38;;;10.60;99.90;;;;;;4990268;28;20424;-85
2023/05/02 00:11:07;;;;;;;23.50;13.82;;;10.60;99.90;;;;;;4968794;28;20038;-83
2023/05/02 00:13:32;;;;;;;26.20;14.77;;;10.70;99.90;;;;;;4985034;28;20034;-84
2023/05/02 00:15:58;;;;;;;26.15;14.27;;;10.70;99.90;;;;;;4988001;28;20026;-86
2023/05/02 00:18:24;;;;;;;23.40;13.48;;;10.70;99.90;;;;;;4987643;28;20023;-83
2023/05/02 00:20:49;;;;;;;20.75;11.75;;;10.70;99.90;;;;;;4988514;28;20045;-84
2023/05/02 00:23:15;;;;;;;21.83;12.60;;;10.70;99.90;;;;;;4987484;28;20113;-84
2023/05/02 00:25:44;;;;;;;22.05;12.60;;;10.70;99.90;;;;;;4971918;28;20023;-85
2023/05/02 00:28:10;;;;;;;20.33;11.07;;;10.70;99.90;;;;;;4973414;28;20471;-85
2023/05/02 00:30:41;;;;;;;17.58;9.68;;;10.80;99.90;;;;;;4992027;28;20114;-84
2023/05/02 00:33:06;;;;;;;23.88;12.13;;;10.80;99.90;;;;;;4979224;28;20061;-86
2023/05/02 00:35:32;;;;;;;18.65;10.25;;;10.80;99.90;;;;;;4994890;28;20066;-85
2023/05/02 00:37:58;;;;;;;19.63;10.75;;;10.80;99.90;;;;;;4990842;28;20022;-84
2023/05/02 00:40:24;;;;;;;22.20;11.95;;;10.80;99.90;;;;;;4974700;28;20033;-84
2023/05/02 00:42:50;;;;;;;19.17;11.60;;;10.80;99.90;;;;;;4979040;28;20046;-86
2023/05/02 00:45:17;;;;;;;20.63;11.30;;;10.80;99.90;;;;;;4978085;28;20401;-87
2023/05/02 00:47:42;;;;;;;22.08;12.77;;;10.80;99.90;;;;;;4990143;28;20034;-84
2023/05/02 00:50:08;;;;;;;21.48;11.68;;;10.80;99.90;;;;;;4995322;28;20069;-86
2023/05/02 00:52:37;;;;;;;21.13;12.07;;;10.80;99.90;;;;;;4978252;28;20026;-85
2023/05/02 00:55:03;;;;;;;21.85;12.15;;;10.80;99.90;;;;;;4973937;28;20089;-83
2023/05/02 00:57:29;;;;;;;22.35;12.55;;;10.80;99.90;;;;;;4995682;28;20061;-84
2023/05/02 00:59:55;;;;;;;19.75;11.05;;;10.70;99.90;;;;;;4992379;28;20066;-84
2023/05/02 01:02:44;;;;;;;22.52;11.65;;;10.80;99.90;;;;;;4979110;28;20046;-85
2023/05/02 01:05:16;;;;;;;19.77;11.37;;;10.70;99.90;;;;;;4977800;28;20097;-86
2023/05/02 01:07:50;;;;;;;19.17;11.35;;;10.70;99.90;;;;;;5001311;28;20065;-83
2023/05/02 01:10:27;;;;;;;15.10;10.18;;;10.70;99.90;;;;;;4993747;28;20080;-84
2023/05/02 01:13:08;;;;;;;14.32;8.77;;;10.70;99.90;;;;;;4974857;28;20034;-83
2023/05/02 01:15:37;;;;;;;15.40;9.45;;;10.60;99.90;;;;;;4971860;28;20085;-83
2023/05/02 01:18:07;;;;;;;13.75;8.80;;;10.70;99.90;;;;;;4994538;28;20026;-83
2023/05/02 01:20:37;;;;;;;13.98;8.70;;;10.70;99.90;;;;;;4975465;28;20034;-83
2023/05/02 01:23:11;;;;;;;14.63;8.40;;;10.70;99.90;;;;;;4978191;28;20052;-84
2023/05/02 01:25:59;;;;;;;15.30;8.70;;;10.70;99.90;;;;;;4995482;28;20022;-83
2023/05/02 01:28:52;;;;;;;13.13;8.02;;;10.60;99.90;;;;;;4973760;28;20525;-85
2023/05/02 01:31:18;;;;;;;16.05;8.98;;;10.60;99.90;;;;;;4990811;28;20030;-84
2023/05/02 01:33:46;;;;;;;16.58;9.80;;;10.60;99.90;;;;;;4978359;28;20031;-85
2023/05/02 01:36:14;;;;;;;15.45;9.98;;;10.60;99.90;;;;;;4992137;28;20037;-86
2023/05/02 01:38:43;;;;;;;15.43;8.55;;;10.60;99.90;;;;;;4975122;28;20022;-85
2023/05/02 01:41:11;;;;;;;16.55;9.30;;;10.60;99.90;;;;;;4992320;28;20092;-85
2023/05/02 01:43:38;;;;;;;15.82;9.60;;;10.60;99.90;;;;;;4988754;28;20034;-84
2023/05/02 01:46:07;;;;;;;13.35;8.15;;;10.60;99.90;;;;;;4988514;28;20080;-84
2023/05/02 01:48:34;;;;;;;18.42;9.07;;;10.60;99.90;;;;;;4990648;28;20132;-83
2023/05/02 01:51:01;;;;;;;12.98;8.02;;;10.60;99.90;;;;;;4991345;28;20029;-82
2023/05/02 01:53:29;;;;;;;13.35;8.02;;;10.60;99.90;;;;;;4991146;28;20084;-85
2023/05/02 01:55:57;;;;;;;16.10;8.57;;;10.60;99.90;;;;;;4990781;28;20037;-85
2023/05/02 01:58:27;;;;;;;16.08;9.90;;;10.60;99.90;;;;;;4973613;28;20034;-85
2023/05/02 02:00:54;;;;;;;18.90;10.68;;;10.60;99.90;;;;;;4990868;28;20031;-85
2023/05/02 02:03:21;;;;;;;18.40;10.55;;;10.60;99.90;;;;;;4972467;28;20085;-85
2023/05/02 02:05:50;;;;;;;19.85;10.82;;;10.60;99.90;;;;;;4973683;28;20054;-85
2023/05/02 02:08:16;;;;;;;19.38;11.35;;;10.60;99.90;;;;;;4989434;28;20038;-85
2023/05/02 02:10:44;;;;;;;19.20;11.90;;;10.50;99.90;;;;;;4975183;28;20034;-85
2023/05/02 02:13:24;;;;;;;20.20;12.10;;;10.50;99.90;;;;;;4975057;28;20042;-84
2023/05/02 02:15:56;;;;;;;19.45;12.43;;;10.60;99.90;;;;;;4969762;28;20471;-84
2023/05/02 02:18:25;;;;;;;18.67;10.85;;;10.50;99.90;;;;;;5007078;28;20034;-85
2023/05/02 02:20:52;;;;;;;20.60;11.88;;;10.50;99.90;;;;;;4971728;28;20023;-86
2023/05/02 02:23:22;;;;;;;25.05;13.38;;;10.50;99.90;;;;;;4973333;28;20439;-85
2023/05/02 02:25:51;;;;;;;19.35;11.75;;;10.50;99.90;;;;;;4989416;28;20461;-85
2023/05/02 02:28:16;;;;;;;26.92;13.48;;;10.50;99.90;;;;;;4974057;28;20038;-85
2023/05/02 02:30:42;;;;;;;22.52;14.10;;;10.50;99.90;;;;;;4971296;28;20033;-83
2023/05/02 02:33:08;;;;;;;20.52;11.27;;;10.60;99.90;;;;;;4988693;28;20453;-85
2023/05/02 02:35:41;;;;;;;19.23;10.90;;;10.60;99.90;;;;;;4990344;28;20053;-86
2023/05/02 02:38:26;;;;;;;17.48;10.23;;;10.60;99.90;;;;;;4991398;28;20115;-84
2023/05/02 02:41:12;;;;;;;13.68;7.47;;;10.60;99.90;;;;;;4990901;28;20104;-84
2023/05/02 02:44:32;;;;;;;15.60;4.03;;;10.50;99.90;;;;;;4973388;28;20583;-82
2023/05/02 02:47:52;;;;;;;8.18;3.15;;;10.40;99.90;;;;;;4935045;29;20504;-83
2023/05/02 02:50:49;;;;;;;11.57;2.83;;;10.40;99.90;;;;;;4918352;29;20983;-83
2023/05/02 02:53:24;;;;;;;8.13;1.85;;;10.20;99.90;;;;;;4914077;29;20102;-85
2023/05/02 02:55:54;;;;;;;9.23;1.88;;;10.20;99.90;;;;;;4916666;29;20142;-84
2023/05/02 02:58:54;;;;;;;7.95;1.20;;;10.10;99.90;;;;;;4930526;29;20473;-87
2023/05/02 03:01:21;;;;;;;5.78;0.82;;;10.00;99.90;;;;;;4913404;29;20150;-84
2023/05/02 03:03:48;;;;;;;6.00;0.90;;;10.00;99.90;;;;;;4915224;29;20514;-84
2023/05/02 03:06:16;;;;;;;4.70;0.77;;;10.10;99.90;;;;;;4899639;29;20039;-87
2023/05/02 03:08:43;;;;;;;6.32;0.80;;;10.10;99.90;;;;;;4930811;29;20071;-83
2023/05/02 03:11:13;;;;;;;5.28;0.60;;;10.10;99.90;;;;;;4914676;29;20035;-86
2023/05/02 03:13:39;;;;;;;4.25;0.60;;;10.10;99.90;;;;;;4915070;29;20583;-84
2023/05/02 03:16:20;;;;;;;5.63;0.80;;;10.10;99.90;;;;;;4899718;29;20028;-84
2023/05/02 03:18:46;;;;;;;6.68;0.85;;;10.10;99.90;;;;;;4899393;29;20036;-83
2023/05/02 03:21:12;;;;;;;3.95;0.57;;;10.10;99.90;;;;;;4950271;28;20057;-83
2023/05/02 03:23:39;;;;;;;9.15;0.93;;;10.10;99.90;;;;;;4970128;28;20026;-84
2023/05/02 03:26:05;;;;;;;2.85;0.70;;;10.00;99.90;;;;;;4989010;28;20042;-84
2023/05/02 03:28:32;;;;;;;5.18;0.80;;;10.00;99.90;;;;;;4968221;28;20031;-83
2023/05/02 03:30:58;;;;;;;4.30;0.60;;;10.00;99.90;;;;;;4989039;28;20018;-83
2023/05/02 03:33:25;;;;;;;7.57;0.70;;;10.00;99.90;;;;;;4971104;28;20037;-84
2023/05/02 03:35:51;;;;;;;5.00;0.80;;;10.00;99.90;;;;;;4970774;28;20026;-83
2023/05/02 03:38:16;;;;;;;6.70;0.60;;;10.00;99.90;;;;;;4974113;28;20089;-84
2023/05/02 03:40:45;;;;;;;6.95;0.88;;;9.90;99.90;;;;;;4987726;28;20030;-85
2023/05/02 03:43:11;;;;;;;5.10;0.52;;;9.90;99.90;;;;;;4987603;28;20034;-85
2023/05/02 03:45:37;;;;;;;5.18;0.70;;;9.90;99.90;;;;;;4985801;28;20125;-86
2023/05/02 03:48:06;;;;;;;3.78;0.50;;;9.90;99.90;;;;;;4973009;28;20122;-84
2023/05/02 03:50:32;;;;;;;6.97;0.57;;;9.90;99.90;;;;;;4985948;28;20073;-86
2023/05/02 03:52:58;;;;;;;4.03;0.55;;;9.90;99.90;;;;;;4972197;28;20022;-84
2023/05/02 03:55:41;;;;;;;3.03;0.50;;;9.90;99.90;;;;;;4971692;28;20387;-86
2023/05/02 03:58:11;;;;;;;6.28;0.70;;;9.90;99.90;;;;;;4973529;28;20089;-83
2023/05/02 04:00:37;;;;;;;7.03;0.60;;;9.90;99.90;;;;;;4967871;28;20030;-86
2023/05/02 04:03:06;;;;;;;4.40;0.57;;;9.90;99.90;;;;;;4969837;28;20414;-83
2023/05/02 04:05:33;;;;;;;6.90;0.50;;;9.80;99.90;;;;;;4970697;28;20026;-85
2023/05/02 04:08:01;;;;;;;7.07;0.75;;;9.80;99.90;;;;;;4968982;28;20489;-84
2023/05/02 04:10:28;;;;;;;3.80;0.60;;;9.80;99.90;;;;;;4969758;28;20045;-85
2023/05/02 04:12:57;;;;;;;4.95;0.50;;;9.80;99.90;;;;;;4982267;28;20030;-85
2023/05/02 04:15:23;;;;;;;4.43;0.50;;;9.80;99.90;;;;;;4967535;28;20026;-83
2023/05/02 04:17:50;;;;;;;3.45;0.50;;;9.80;99.90;;;;;;4969856;28;20498;-83
2023/05/02 04:20:16;;;;;;;5.88;0.47;;;9.80;99.90;;;;;;4988485;28;20064;-83
2023/05/02 04:22:46;;;;;;;2.53;0.52;;;9.80;99.90;;;;;;4986738;28;20429;-83
2023/05/02 04:25:13;;;;;;;1.80;0.52;;;9.80;99.90;;;;;;4970535;28;20057;-83
2023/05/02 04:27:40;;;;;;;4.22;0.55;;;9.80;99.90;;;;;;4971109;28;20100;-83
2023/05/02 04:30:09;;;;;;;4.13;0.60;;;9.80;99.90;;;;;;4987412;28;20498;-83
2023/05/02 04:32:36;;;;;;;6.07;0.65;;;9.80;99.90;;;;;;4988636;28;20032;-84
2023/05/02 04:35:03;;;;;;;3.88;0.40;;;9.70;99.90;;;;;;4970461;28;20061;-83
2023/05/02 04:37:29;;;;;;;3.95;0.50;;;9.80;99.90;;;;;;4970003;28;20030;-83
2023/05/02 04:39:55;;;;;;;6.60;0.80;;;9.80;99.90;;;;;;4972018;28;20037;-85
2023/05/02 04:42:24;;;;;;;6.93;0.50;;;9.80;99.90;;;;;;4971566;28;20038;-84
2023/05/02 04:45:08;;;;;;;6.45;0.60;;;9.80;99.90;;;;;;4982074;28;20125;-84
2023/05/02 04:47:34;;;;;;;5.30;0.50;;;9.80;99.90;;;;;;4972912;28;20034;-84
2023/05/02 04:50:00;;;;;;;4.28;0.50;;;9.80;99.90;;;;;;4973040;28;20034;-85
2023/05/02 04:52:25;;;;;;;6.15;0.75;;;9.80;99.90;;;;;;4984895;28;20034;-86
2023/05/02 04:54:51;;;;;;;4.20;0.40;;;9.80;99.90;;;;;;4969410;28;20490;-83
2023/05/02 04:57:17;;;;;;;7.30;0.90;;;9.80;99.90;;;;;;4981756;28;20026;-84
2023/05/02 04:59:47;;;;;;;4.85;0.47;;;9.80;99.90;;;;;;4968267;28;20053;-83
2023/05/02 05:02:13;;;;;;;2.63;0.50;;;9.80;99.90;;;;;;4984125;28;20478;-83
2023/05/02 05:04:39;;;;;;;1.52;0.30;;;9.80;99.90;;;;;;4971815;28;20117;-83
2023/05/02 05:07:04;;;;;;;3.63;0.50;;;9.80;99.90;;;;;;4988393;28;20109;-83
2023/05/02 05:09:30;;;;;;;3.03;0.55;;;9.70;99.90;;;;;;4971421;28;20114;-83
2023/05/02 05:11:57;;;;;;;9.88;0.75;;;9.70;99.90;;;;;;4969759;28;20038;-84
2023/05/02 05:14:23;;;;;;;8.23;0.82;;;9.70;99.90;;;;;;4971306;28;20037;-86
2023/05/02 05:16:51;;;;;;;6.80;1.60;;;9.60;99.90;;;;;;4975641;28;20458;-84
2023/05/02 05:19:18;;;;;;;4.93;0.60;;;9.60;99.90;;;;;;4982075;28;20493;-82
2023/05/02 05:21:44;;;;;;;6.03;1.42;;;9.60;99.90;;;;;;4986649;28;20038;-84
2023/05/02 05:24:11;;;;;;;8.45;1.15;;;9.60;99.90;;;;;;4975521;28;20348;-83
2023/05/02 05:26:37;;;;;;;6.95;0.85;;;9.50;99.90;;;;;;4991222;28;20188;-83
2023/05/02 05:29:02;;;;;;;7.20;0.80;;;9.50;99.90;;;;;;4968262;28;20038;-84
2023/05/02 05:31:34;;;;;;;5.65;0.60;;;9.60;99.90;;;;;;4970255;28;20875;-84
2023/05/02 05:34:01;;;;;;;6.35;0.75;;;9.50;99.90;;;;;;4968790;28;20096;-84
2023/05/02 05:36:27;;;;;;;7.70;0.75;;;9.60;99.90;;;;;;4986083;28;20121;-84
2023/05/02 05:38:53;;;;;;;4.75;0.60;;;9.50;99.90;;;;;;4967325;28;20890;-83
2023/05/02 05:41:19;;;;;;;10.38;0.70;;;9.50;99.90;;;;;;4967892;28;20033;-83
2023/05/02 05:43:49;;;;;;;5.80;0.70;;;9.60;99.90;;;;;;4983514;28;20120;-83
2023/05/02 05:46:15;;;;;;;5.50;0.70;;;9.60;99.90;;;;;;4975238;28;20030;-82
2023/05/02 05:48:40;;;;;;;7.70;0.98;;;9.60;99.90;;;;;;4967843;28;20042;-84
2023/05/02 05:51:06;;;;;;;7.40;1.15;;;9.60;99.90;;;;;;4985415;28;20035;-84
2023/05/02 05:53:33;;;;;;;7.68;0.95;;;9.60;99.90;;;;;;4986078;28;20031;-84
2023/05/02 05:56:10;;;;;;;7.20;1.05;;;9.60;99.90;;;;;;4969930;28;20108;-83
2023/05/02 05:58:39;;;;;;;6.28;0.73;;;9.60;99.90;;;;;;4982983;28;20057;-84
2023/05/02 06:01:06;;;;;;;6.75;1.02;;;9.70;99.90;;;;;;4968754;28;20058;-83
2023/05/02 06:03:32;;;;;;;9.32;0.98;;;9.70;99.90;;;;;;4969131;28;20645;-84
2023/05/02 06:05:59;;;;;;;10.02;1.40;;;9.70;99.90;;;;;;4969659;28;20121;-84
2023/05/02 06:08:28;;;;;;;11.88;1.10;;;9.60;99.90;;;;;;4985724;28;20045;-83
2023/05/02 06:10:54;;;;;;;12.65;1.75;;;9.50;99.90;;;;;;4978091;28;20421;-83
2023/05/02 06:13:20;;;;;;;14.10;1.08;;;9.40;99.90;;;;;;4985686;28;20025;-83
2023/05/02 06:15:46;;;;;;;6.60;0.80;;;9.50;99.90;;;;;;4984080;28;20244;-83
2023/05/02 06:18:13;;;;;;;4.95;0.50;;;9.70;99.90;;;;;;4984859;28;20220;-83
2023/05/02 06:20:38;;;;;;;8.18;0.85;;;9.60;99.90;;;;;;4966516;28;20184;-83
2023/05/02 06:23:04;;;;;;;7.80;0.88;;;9.50;99.90;;;;;;4984000;28;20051;-84
2023/05/02 06:25:31;;;;;;;9.45;1.27;;;9.40;99.90;;;;;;4967302;28;20054;-84
2023/05/02 06:27:57;;;;;;;7.05;0.95;;;9.40;99.90;;;;;;4982657;28;20065;-84
2023/05/02 06:30:22;;;;;;;7.13;0.70;;;9.40;99.90;;;;;;4982966;28;20770;-84
2023/05/02 06:32:51;;;;;;;4.70;0.50;;;9.50;99.90;;;;;;4984957;28;20037;-83
2023/05/02 06:35:17;;;;;;;6.03;0.75;;;9.40;99.90;;;;;;4968891;28;20029;-82
2023/05/02 06:37:43;;;;;;;5.82;0.90;;;9.40;99.90;;;;;;4964220;28;20038;-83
2023/05/02 06:40:09;;;;;;;6.03;0.60;;;9.40;99.90;;;;;;4965449;28;20554;-83
2023/05/02 06:42:34;;;;;;;9.18;1.13;;;9.60;99.90;;;;;;4966550;28;20045;-83
2023/05/02 06:45:00;;;;;;;3.65;0.80;;;9.40;99.90;;;;;;4968601;28;20768;-83
2023/05/02 06:47:28;;;;;;;5.82;0.82;;;9.80;99.90;;;;;;4984259;28;20747;-83
2023/05/02 06:49:55;;;;;;;7.32;0.80;;;9.90;99.90;;;;;;4974373;28;20041;-82
2023/05/02 06:52:20;;;;;;;6.57;0.90;;;9.90;99.90;;;;;;4968092;28;20100;-82
2023/05/02 06:54:46;;;;;;;7.80;0.90;;;9.80;99.90;;;;;;4984254;28;20324;-83
2023/05/02 06:57:12;;;;;;;7.72;1.00;;;9.90;99.90;;;;;;4985167;28;20026;-84
2023/05/02 06:59:37;;;;;;;9.13;1.10;;;9.90;99.90;;;;;;4973494;28;20035;-83
2023/05/02 07:02:03;;;;;;;7.30;0.80;;;9.90;99.90;;;;;;4967703;28;20038;-83
2023/05/02 07:04:29;;;;;;;9.77;1.00;;;10.10;99.90;;;;;;4983150;28;20034;-83
2023/05/02 07:06:54;;;;;;;7.85;1.02;;;9.90;99.90;;;;;;4974718;28;20084;-82
2023/05/02 07:09:20;;;;;;;9.38;0.88;;;9.90;99.90;;;;;;4989888;28;20042;-83
2023/05/02 07:11:46;;;;;;;8.43;0.80;;;9.70;99.90;;;;;;4990678;28;20041;-82
2023/05/02 07:14:11;;;;;;;5.88;0.80;;;9.60;99.90;;;;;;4974259;28;20151;-82
2023/05/02 07:16:37;;;;;;;3.60;0.52;;;9.60;99.90;;;;;;4966373;28;20025;-83
2023/05/02 07:19:05;;;;;;;6.35;0.70;;;9.50;99.90;;;;;;4983610;28;20505;-83
2023/05/02 07:21:31;;;;;;;6.55;0.70;;;9.50;99.90;;;;;;4983525;28;20033;-83
2023/05/02 07:23:57;;;;;;;6.13;0.70;;;9.60;99.90;;;;;;4967192;28;20064;-84
2023/05/02 07:26:24;;;;;;;7.60;0.70;;;9.70;99.90;;;;;;4982961;28;20121;-83
2023/05/02 07:28:49;;;;;;;5.22;0.68;;;9.70;99.90;;;;;;4982730;28;20320;-83
2023/05/02 07:31:15;;;;;;;3.35;0.50;;;9.60;99.90;;;;;;4966008;28;20291;-84
2023/05/02 07:33:41;;;;;;;2.47;0.40;;;9.70;99.90;;;;;;4966660;28;20034;-84
2023/05/02 07:36:06;;;;;;;6.53;0.60;;;9.90;99.90;;;;;;4983017;28;20041;-83
2023/05/02 07:38:32;;;;;;;6.00;0.40;;;9.70;99.90;;;;;;4972461;28;20121;-83
2023/05/02 07:40:59;;;;;;;3.63;0.60;;;9.50;99.90;;;;;;4984001;28;20579;-83
2023/05/02 07:43:25;;;;;;;4.15;0.50;;;9.60;99.90;;;;;;4982599;28;20046;-84
2023/05/02 07:45:51;;;;;;;3.83;0.40;;;9.70;99.90;;;;;;4982389;28;20046;-84
2023/05/02 07:48:16;;;;;;;1.23;0.28;;;9.90;99.90;;;;;;4967211;28;20042;-83
2023/05/02 07:50:42;;;;;;;4.55;0.30;;;10.00;99.90;;;;;;4965788;28;20034;-84
2023/05/02 07:53:08;;;;;;;2.75;0.25;;;10.20;99.90;;;;;;4965584;28;20178;-83
2023/05/02 07:55:34;;;;;;;1.90;0.20;;;10.30;99.90;;;;;;4981429;28;20451;-82
2023/05/02 07:57:59;;;;;;;5.50;0.50;;;10.30;99.90;;;;;;4973887;28;20073;-84
2023/05/02 08:00:25;;;;;;;3.10;0.30;;;10.10;99.90;;;;;;4964425;28;20038;-82
2023/05/02 08:02:51;;;;;;;4.00;0.80;;;10.20;99.90;;;;;;4966116;28;20092;-83
2023/05/02 08:05:16;;;;;;;3.28;0.50;;;10.10;99.90;;;;;;4982237;28;20125;-83
2023/05/02 08:07:42;;;;;;;4.70;0.32;;;10.40;99.90;;;;;;4966096;28;20231;-84
2023/05/02 08:10:09;;;;;;;4.70;0.47;;;10.40;99.90;;;;;;4963652;28;20562;-83
2023/05/02 08:12:39;;;;;;;5.68;0.40;;;10.20;99.90;;;;;;4982924;28;20121;-83
2023/05/02 08:15:07;;;;;;;4.47;0.50;;;9.90;99.90;;;;;;4964706;28;20049;-83
2023/05/02 08:17:32;;;;;;;3.47;0.40;;;9.70;99.90;;;;;;4988833;28;20041;-84
2023/05/02 08:19:58;;;;;;;1.95;0.30;;;9.70;99.90;;;;;;4981693;28;20091;-84
2023/05/02 08:22:24;;;;;;;4.50;0.50;;;9.60;99.90;;;;;;4966772;28;20396;-83
2023/05/02 08:24:49;;;;;;;3.60;0.40;;;9.60;99.90;;;;;;4966291;28;20061;-84
2023/05/02 08:27:15;;;;;;;2.88;0.35;;;9.50;99.90;;;;;;4982554;28;20026;-83
2023/05/02 08:29:41;;;;;;;6.32;0.43;;;9.60;99.90;;;;;;4972245;28;20034;-83
2023/05/02 08:32:06;;;;;;;3.88;0.40;;;9.60;99.90;;;;;;4982163;28;20034;-84
2023/05/02 08:34:32;;;;;;;1.55;0.30;;;9.60;99.90;;;;;;4972637;28;20039;-84
2023/05/02 08:36:58;;;;;;;4.18;0.52;;;9.70;99.90;;;;;;4984460;28;20045;-84
2023/05/02 08:39:24;;;;;;;7.07;0.45;;;10.00;99.90;;;;;;4981983;28;20030;-84
2023/05/02 08:41:49;;;;;;;4.45;0.50;;;9.90;99.90;;;;;;4973999;28;20077;-83
2023/05/02 08:44:16;;;;;;;5.45;0.40;;;10.50;99.90;;;;;;4966491;28;20060;-83
2023/05/02 08:46:42;;;;;;;2.22;0.40;;;10.40;99.90;;;;;;4964700;28;20064;-83
2023/05/02 08:49:10;;;;;;;3.10;0.30;;;10.70;99.90;;;;;;4965450;28;20072;-84
2023/05/02 08:51:37;;;;;;;2.70;0.30;;;11.20;99.90;;;;;;4985174;28;20042;-84
2023/05/02 08:54:06;;;;;;;2.42;0.40;;;11.40;99.90;;;;;;4976099;28;20033;-83
2023/05/02 08:56:32;;;;;;;1.58;0.30;;;11.40;99.90;;;;;;4971484;28;20579;-84
2023/05/02 08:58:57;;;;;;;3.00;0.38;;;11.00;99.90;;;;;;4968354;28;20263;-83
2023/05/02 09:01:27;;;;;;;5.78;0.50;;;11.30;99.90;;;;;;4977205;28;20468;-84
2023/05/02 09:03:54;;;;;;;1.83;0.30;;;11.30;99.90;;;;;;4969279;28;20041;-83
2023/05/02 09:06:21;;;;;;;1.63;0.20;;;11.50;99.90;;;;;;4977718;28;20514;-84
2023/05/02 09:08:48;;;;;;;3.45;0.30;;;11.30;99.90;;;;;;4967405;28;20113;-84
2023/05/02 09:11:15;;;;;;;3.95;0.30;;;11.20;99.90;;;;;;4967524;28;20469;-84
2023/05/02 09:13:43;;;;;;;2.75;0.30;;;11.50;99.90;;;;;;4983983;28;20038;-85
2023/05/02 09:16:14;;;;;;;1.55;0.38;;;11.80;99.90;;;;;;4967334;28;20038;-85
2023/05/02 09:18:45;;;;;;;2.88;0.40;;;11.30;99.90;;;;;;4972035;28;20518;-83
2023/05/02 09:21:24;;;;;;;1.17;0.30;;;11.10;99.90;;;;;;4964838;28;20715;-84
2023/05/02 09:23:53;;;;;;;3.42;0.50;;;11.20;99.90;;;;;;4972157;28;20057;-84
2023/05/02 09:26:21;;;;;;;1.50;0.30;;;11.20;99.90;;;;;;4982597;28;20054;-84
2023/05/02 09:28:52;;;;;;;3.67;0.40;;;11.20;99.90;;;;;;4961916;28;20046;-83
2023/05/02 09:31:24;;;;;;;3.40;0.40;;;11.20;99.90;;;;;;4965841;28;20034;-84
2023/05/02 09:33:51;;;;;;;3.35;0.52;;;11.40;99.90;;;;;;4967017;28;20039;-84
2023/05/02 09:36:19;;;;;;;2.20;0.35;;;11.30;99.90;;;;;;4987589;28;20034;-84
2023/05/02 09:38:47;;;;;;;1.25;0.20;;;11.60;99.90;;;;;;4981956;28;20096;-84
2023/05/02 09:41:13;;;;;;;1.75;0.20;;;12.30;99.90;;;;;;4955540;28;20034;-83
2023/05/02 09:43:39;;;;;;;3.80;0.30;;;12.50;99.90;;;;;;4965786;28;20122;-84
2023/05/02 09:46:07;;;;;;;2.00;0.20;;;12.60;99.90;;;;;;4973442;28;20161;-84
2023/05/02 09:48:54;;;;;;;1.73;0.30;;;12.70;99.90;;;;;;4998030;28;20042;-84
2023/05/02 09:51:24;;;;;;;2.28;0.40;;;12.60;99.90;;;;;;4981652;28;20050;-85
2023/05/02 09:53:50;;;;;;;2.72;0.40;;;12.20;99.90;;;;;;4981961;28;20253;-84
2023/05/02 09:56:16;;;;;;;3.25;0.40;;;12.10;99.90;;;;;;4981684;28;20680;-84
2023/05/02 09:58:42;;;;;;;4.13;0.30;;;11.50;99.90;;;;;;4963221;28;20133;-84
2023/05/02 10:01:14;;;;;;;1.60;0.25;;;12.10;99.90;;;;;;4964853;28;20347;-85
2023/05/02 10:03:40;;;;;;;2.05;0.30;;;12.20;99.90;;;;;;4980042;28;20517;-86
2023/05/02 10:06:08;;;;;;;3.38;0.22;;;12.50;99.90;;;;;;4965143;28;20030;-85
2023/05/02 10:08:34;;;;;;;2.35;0.30;;;12.90;99.90;;;;;;4985231;28;20045;-85
2023/05/02 10:11:05;;;;;;;2.17;0.30;;;13.20;99.90;;;;;;4982877;28;20145;-83
2023/05/02 10:13:33;;;;;;;3.90;0.40;;;12.30;99.90;;;;;;4981641;28;20042;-85
2023/05/02 10:16:02;;;;;;;1.58;0.30;;;11.70;99.90;;;;;;4981799;28;20030;-85
2023/05/02 10:18:56;;;;;;;2.58;0.60;;;11.90;99.90;;;;;;4972501;28;20039;-85
2023/05/02 10:21:28;;;;;;;2.55;0.40;;;11.40;99.90;;;;;;4961240;28;20384;-84
2023/05/02 10:23:54;;;;;;;1.83;0.30;;;11.60;99.90;;;;;;4965791;28;20042;-85
2023/05/02 10:26:22;;;;;;;1.70;0.20;;;12.30;99.90;;;;;;4966607;28;20084;-85
2023/05/02 10:28:49;;;;;;;2.67;0.30;;;13.10;99.90;;;;;;4964212;28;21374;-85
2023/05/02 10:31:16;;;;;;;2.97;0.30;;;12.90;99.90;;;;;;4982125;28;21449;-85
2023/05/02 10:33:42;;;;;;;4.03;0.40;;;13.20;99.90;;;;;;4978542;28;20038;-85
2023/05/02 10:36:13;;;;;;;1.75;0.20;;;12.70;99.90;;;;;;4980802;28;20901;-86
2023/05/02 10:38:39;;;;;;;2.97;0.30;;;12.70;99.90;;;;;;4979683;28;20117;-84
2023/05/02 10:41:27;;;;;;;1.95;0.40;;;12.80;99.90;;;;;;4983731;28;20482;-85
2023/05/02 10:43:53;;;;;;;4.15;0.40;;;13.50;99.90;;;;;;4968166;28;20058;-85
2023/05/02 10:46:30;;;;;;;2.38;0.20;;;13.40;99.90;;;;;;4969468;28;20521;-85
2023/05/02 10:49:02;;;;;;;3.30;0.40;;;13.60;99.90;;;;;;4970468;28;20029;-84
2023/05/02 10:51:30;;;;;;;3.13;0.40;;;12.50;99.90;;;;;;5002671;28;20026;-84
2023/05/02 10:54:14;;;;;;;4.93;0.40;;;12.90;99.90;;;;;;5007586;28;20043;-85
2023/05/02 10:57:05;;;;;;;3.00;0.40;;;13.00;99.90;;;;;;4978960;28;20026;-85
2023/05/02 10:59:39;;;;;;;4.53;0.60;;;12.70;99.90;;;;;;4972544;28;20513;-85
2023/05/02 11:02:29;;;;;;;3.97;0.60;;;12.70;99.90;;;;;;4972464;28;20697;-85
2023/05/02 11:05:02;;;;;;;2.42;0.40;;;13.00;99.90;;;;;;4973167;28;20057;-84
2023/05/02 11:07:29;;;;;;;3.25;0.43;;;13.40;99.90;;;;;;4974089;28;20037;-85
2023/05/02 11:10:14;;;;;;;1.35;0.30;;;14.00;99.90;;;;;;4974489;28;20027;-83
2023/05/02 11:12:47;;;;;;;4.50;0.50;;;14.60;99.90;;;;;;4987656;28;20061;-84
2023/05/02 11:15:25;;;;;;;1.63;0.30;;;14.00;99.90;;;;;;5003322;28;20038;-85
2023/05/02 11:18:07;;;;;;;2.85;0.40;;;13.70;99.90;;;;;;4981793;28;20665;-84
2023/05/02 11:20:40;;;;;;;4.50;0.40;;;13.00;99.90;;;;;;4983624;28;20042;-84
2023/05/02 11:23:24;;;;;;;2.40;0.32;;;12.90;99.90;;;;;;4988052;28;20038;-84
2023/05/02 11:25:55;;;;;;;6.32;0.88;;;12.90;99.90;;;;;;4989285;28;20111;-85
2023/05/02 11:28:36;;;;;;;3.67;0.40;;;13.70;99.90;;;;;;4994169;28;20088;-84
2023/05/02 11:31:04;;;;;;;1.95;0.55;;;14.00;99.90;;;;;;4973640;28;20490;-84
2023/05/02 11:33:30;;;;;;;5.78;0.82;;;14.10;99.90;;;;;;4978421;28;20025;-84
2023/05/02 11:35:57;;;;;;;2.83;0.50;;;13.50;99.90;;;;;;4989488;28;20057;-86
2023/05/02 11:38:23;;;;;;;3.10;0.40;;;14.50;99.90;;;;;;4972549;28;20138;-86
2023/05/02 11:40:55;;;;;;;3.97;0.50;;;14.30;99.90;;;;;;4976843;28;20407;-84
2023/05/02 11:43:27;;;;;;;2.92;0.63;;;14.10;99.90;;;;;;4973828;28;20589;-84
2023/05/02 11:45:54;;;;;;;3.63;0.40;;;14.10;99.90;;;;;;4970543;28;20050;-84
2023/05/02 11:48:22;;;;;;;5.90;0.70;;;14.10;99.90;;;;;;4971605;28;20037;-84
2023/05/02 11:50:51;;;;;;;2.65;0.32;;;13.80;99.90;;;;;;4986768;28;20046;-85
2023/05/02 11:53:25;;;;;;;1.48;0.30;;;14.50;99.90;;;;;;4976199;28;20034;-85
2023/05/02 11:55:56;;;;;;;1.25;0.40;;;15.00;99.90;;;;;;4971866;28;20085;-85
2023/05/02 11:58:24;;;;;;;3.63;0.50;;;15.30;99.90;;;;;;4988167;28;20044;-86
2023/05/02 12:00:51;;;;;;;3.80;0.60;;;14.10;99.90;;;;;;4981304;28;20073;-83
2023/05/02 12:03:31;;;;;;;2.00;0.40;;;13.80;99.90;;;;;;4969492;28;20053;-83
2023/05/02 12:06:08;;;;;;;2.20;0.30;;;14.10;99.90;;;;;;4989020;28;20034;-84
2023/05/02 12:08:34;;;;;;;2.58;0.55;;;14.70;99.90;;;;;;4971642;28;20034;-86
2023/05/02 12:11:00;;;;;;;2.75;0.60;;;13.80;99.90;;;;;;4978877;28;20033;-85
2023/05/02 12:13:28;;;;;;;3.47;0.40;;;14.00;99.90;;;;;;4987049;28;20044;-85
2023/05/02 12:15:55;;;;;;;3.35;0.30;;;14.70;99.90;;;;;;4972133;28;20587;-84
2023/05/02 12:18:22;;;;;;;3.80;0.82;;;14.90;99.90;;;;;;4970132;28;20058;-84
2023/05/02 12:20:50;;;;;;;2.35;0.50;;;14.90;99.90;;;;;;4968328;28;20038;-84
2023/05/02 12:23:18;;;;;;;3.38;0.40;;;14.90;99.90;;;;;;4969665;28;20074;-86
2023/05/02 12:25:44;;;;;;;1.65;0.40;;;14.90;99.90;;;;;;4971764;28;20046;-84
2023/05/02 12:28:10;;;;;;;3.92;0.45;;;15.20;99.90;;;;;;4972245;28;20042;-87
2023/05/02 12:30:40;;;;;;;3.28;0.50;;;15.00;99.90;;;;;;4973432;28;20034;-85
2023/05/02 12:33:06;;;;;;;2.25;0.40;;;14.70;99.90;;;;;;5004636;28;20082;-85
2023/05/02 12:35:33;;;;;;;5.78;0.60;;;15.20;99.90;;;;;;4970318;28;20038;-85
2023/05/02 12:38:17;;;;;;;4.82;0.73;;;14.50;99.90;;;;;;4987192;28;20038;-84
2023/05/02 12:40:56;;;;;;;1.63;0.38;;;14.40;99.90;;;;;;4969644;28;20703;-85
2023/05/02 12:43:22;;;;;;;2.08;0.40;;;15.50;99.90;;;;;;4987320;28;20038;-85
2023/05/02 12:45:49;;;;;;;3.28;0.50;;;15.10;99.90;;;;;;4932493;28;20109;-84
2023/05/02 12:48:26;;;;;;;3.83;0.47;;;15.00;99.90;;;;;;4954776;28;20034;-85
2023/05/02 12:50:53;;;;;;;3.30;0.50;;;15.20;99.90;;;;;;4949483;28;20217;-84
2023/05/02 12:53:42;;;;;;;5.75;0.50;;;14.80;99.90;;;;;;4948163;28;20070;-87
2023/05/02 12:56:09;;;;;;;4.03;0.50;;;15.00;99.90;;;;;;4964919;28;20035;-86